createdAt,value
2022-10-09T00:01:13.207Z,2.58
2022-10-09T00:03:42.085Z,2.25
2022-10-09T00:06:11.070Z,2.20
2022-10-09T00:08:39.509Z,2.40
2022-10-09T00:11:08.311Z,2.10
2022-10-09T00:13:36.569Z,2.30
2022-10-09T00:16:11.456Z,2.25
2022-10-09T00:18:39.054Z,1.95
2022-10-09T00:21:14.197Z,2.10
2022-10-09T00:23:41.409Z,2.00
2022-10-09T00:26:09.017Z,2.65
2022-10-09T00:28:38.658Z,2.60
2022-10-09T00:31:09.216Z,1.95
2022-10-09T00:33:37.408Z,2.22
2022-10-09T00:36:06.272Z,2.33
2022-10-09T00:38:34.434Z,2.30
2022-10-09T00:41:01.938Z,2.70
2022-10-09T00:43:50.165Z,2.15
2022-10-09T00:46:46.597Z,2.10
2022-10-09T00:49:27.420Z,2.17
2022-10-09T00:51:56.821Z,2.13
2022-10-09T00:56:53.430Z,2.20
2022-10-09T00:59:20.947Z,2.00
2022-10-09T01:01:49.436Z,1.88
2022-10-09T01:04:17.019Z,2.40
2022-10-09T01:07:11.250Z,2.80
2022-10-09T01:09:59.592Z,2.42
2022-10-09T01:12:37.255Z,1.93
2022-10-09T01:15:24.838Z,2.45
2022-10-09T01:18:14.969Z,3.63
2022-10-09T01:20:48.240Z,2.60
2022-10-09T01:23:27.483Z,2.28
2022-10-09T01:28:22.634Z,2.22
2022-10-09T01:30:50.183Z,2.05
2022-10-09T01:33:17.582Z,2.38
2022-10-09T01:35:45.704Z,2.30
2022-10-09T01:38:12.974Z,1.98
2022-10-09T01:40:40.289Z,1.90
2022-10-09T01:43:07.471Z,3.40
2022-10-09T01:45:39.855Z,2.47
2022-10-09T01:48:08.206Z,2.35
2022-10-09T01:50:39.773Z,2.30
2022-10-09T01:53:16.509Z,2.10
2022-10-09T01:55:51.369Z,2.17
2022-10-09T01:58:28.854Z,2.08
2022-10-09T02:01:09.774Z,2.25
2022-10-09T02:03:39.885Z,2.05
2022-10-09T02:06:08.944Z,2.20
2022-10-09T02:08:37.721Z,1.95
2022-10-09T02:11:05.473Z,2.33
2022-10-09T02:13:33.611Z,2.30
2022-10-09T02:16:06.396Z,2.30
2022-10-09T02:18:56.738Z,2.50
2022-10-09T02:21:43.024Z,2.28
2022-10-09T02:24:18.244Z,1.80
2022-10-09T02:26:45.466Z,1.98
2022-10-09T02:29:13.612Z,2.00
2022-10-09T02:31:42.711Z,2.17
2022-10-09T02:34:12.168Z,2.47
2022-10-09T02:36:41.116Z,2.70
2022-10-09T02:39:08.327Z,2.22
2022-10-09T02:41:36.453Z,2.22
2022-10-09T02:44:04.623Z,2.20
2022-10-09T02:46:32.067Z,2.22
2022-10-09T02:48:59.375Z,2.15
2022-10-09T02:51:26.984Z,2.13
2022-10-09T02:53:54.300Z,2.30
2022-10-09T02:56:22.862Z,2.40
2022-10-09T02:58:50.362Z,1.80
2022-10-09T03:01:18.016Z,2.15
2022-10-09T03:03:45.954Z,2.50
2022-10-09T03:06:15.351Z,2.97
2022-10-09T03:11:12.382Z,1.92
2022-10-09T03:13:39.819Z,2.65
2022-10-09T03:16:12.572Z,2.13
2022-10-09T03:18:40.520Z,2.55
2022-10-09T03:21:09.222Z,2.92
2022-10-09T03:23:36.999Z,2.30
2022-10-09T03:26:07.851Z,2.25
2022-10-09T03:28:40.199Z,2.20
2022-10-09T03:31:08.004Z,2.50
2022-10-09T03:33:36.078Z,1.92
2022-10-09T03:36:03.441Z,2.42
2022-10-09T03:38:30.717Z,2.53
2022-10-09T03:41:01.925Z,2.15
2022-10-09T03:43:29.129Z,2.55
2022-10-09T03:46:00.911Z,2.58
2022-10-09T03:48:28.281Z,2.40
2022-10-09T03:50:55.448Z,3.30
2022-10-09T03:53:22.675Z,2.45
2022-10-09T03:55:50.090Z,2.70
2022-10-09T03:58:17.267Z,2.50
2022-10-09T04:00:46.144Z,2.53
2022-10-09T04:03:13.369Z,2.40
2022-10-09T04:05:40.550Z,2.40
2022-10-09T04:08:07.756Z,2.28
2022-10-09T04:10:34.937Z,2.67
2022-10-09T04:13:02.145Z,2.22
2022-10-09T04:15:29.338Z,2.78
2022-10-09T04:17:56.597Z,2.40
2022-10-09T04:20:23.910Z,2.60
2022-10-09T04:22:51.400Z,2.60
2022-10-09T04:25:18.862Z,2.83
2022-10-09T04:27:46.073Z,2.70
2022-10-09T04:30:13.539Z,2.97
2022-10-09T04:32:43.829Z,2.42
2022-10-09T04:35:11.049Z,2.65
2022-10-09T04:37:38.322Z,2.35
2022-10-09T04:40:05.765Z,2.65
2022-10-09T04:42:32.954Z,2.92
2022-10-09T04:45:00.160Z,3.28
2022-10-09T04:47:27.474Z,2.80
2022-10-09T04:49:54.885Z,2.80
2022-10-09T04:52:22.105Z,2.83
2022-10-09T04:54:49.341Z,3.25
2022-10-09T04:57:16.711Z,2.40
2022-10-09T04:59:43.964Z,2.53
2022-10-09T05:02:11.195Z,3.45
2022-10-09T05:04:38.481Z,3.25
2022-10-09T05:07:05.686Z,2.67
2022-10-09T05:09:32.946Z,2.70
2022-10-09T05:12:00.181Z,2.90
2022-10-09T05:14:27.424Z,1.92
2022-10-09T05:17:13.071Z,2.42
2022-10-09T05:19:41.580Z,2.58
2022-10-09T05:22:08.779Z,2.22
2022-10-09T05:24:35.994Z,2.63
2022-10-09T05:27:03.332Z,2.42
2022-10-09T05:29:30.629Z,2.75
2022-10-09T05:31:57.930Z,2.67
2022-10-09T05:34:25.198Z,3.40
2022-10-09T05:36:52.411Z,2.63
2022-10-09T05:39:19.581Z,2.45
2022-10-09T05:41:46.770Z,2.80
2022-10-09T05:44:14.042Z,2.42
2022-10-09T05:46:45.753Z,2.40
2022-10-09T05:49:13.140Z,2.58
2022-10-09T05:51:42.825Z,2.63
2022-10-09T05:54:15.101Z,3.42
2022-10-09T05:56:42.953Z,2.67
2022-10-09T05:59:13.841Z,2.70
2022-10-09T06:01:47.174Z,3.00
2022-10-09T06:04:25.547Z,2.65
2022-10-09T06:06:52.919Z,2.70
2022-10-09T06:09:23.280Z,2.50
2022-10-09T06:11:51.624Z,3.03
2022-10-09T06:14:22.195Z,2.90
2022-10-09T06:16:49.847Z,3.47
2022-10-09T06:19:24.371Z,3.75
2022-10-09T06:21:52.142Z,3.25
2022-10-09T06:24:28.867Z,3.10
2022-10-09T06:26:57.814Z,3.15
2022-10-09T06:29:25.657Z,3.83
2022-10-09T06:31:53.166Z,4.10
2022-10-09T06:34:20.703Z,4.03
2022-10-09T06:36:47.931Z,4.50
2022-10-09T06:39:19.638Z,5.10
2022-10-09T06:41:47.409Z,5.60
2022-10-09T06:44:17.229Z,3.97
2022-10-09T06:46:45.520Z,4.03
2022-10-09T06:49:13.334Z,4.43
2022-10-09T06:51:41.812Z,3.50
2022-10-09T06:54:14.508Z,3.23
2022-10-09T06:56:45.672Z,2.85
2022-10-09T06:59:13.156Z,2.95
2022-10-09T07:01:40.623Z,3.03
2022-10-09T07:04:11.735Z,3.15
2022-10-09T07:06:41.997Z,2.60
2022-10-09T07:09:11.532Z,3.00
2022-10-09T07:11:40.930Z,3.10
2022-10-09T07:16:41.980Z,3.25
2022-10-09T07:19:11.338Z,2.83
2022-10-09T07:21:43.005Z,2.80
2022-10-09T07:24:11.381Z,3.35
2022-10-09T07:26:43.954Z,2.80
2022-10-09T07:29:14.810Z,2.20
2022-10-09T07:31:46.336Z,2.58
2022-10-09T07:34:16.247Z,2.55
2022-10-09T07:36:44.374Z,2.30
2022-10-09T07:39:11.724Z,2.38
2022-10-09T07:41:39.065Z,2.30
2022-10-09T07:44:06.435Z,2.70
2022-10-09T07:46:35.911Z,2.80
2022-10-09T07:49:05.480Z,2.60
2022-10-09T07:51:35.059Z,2.42
2022-10-09T07:54:04.664Z,2.92
2022-10-09T07:56:34.437Z,2.47
2022-10-09T07:59:12.067Z,2.45
2022-10-09T08:01:46.870Z,2.40
2022-10-09T08:04:14.568Z,2.78
2022-10-09T08:09:31.397Z,2.10
2022-10-09T08:12:02.289Z,2.30
2022-10-09T08:14:29.620Z,2.72
2022-10-09T08:16:56.934Z,2.92
2022-10-09T08:19:42.445Z,2.42
2022-10-09T08:22:14.314Z,2.47
2022-10-09T08:24:41.759Z,2.42
2022-10-09T08:27:21.543Z,2.30
2022-10-09T08:29:50.082Z,2.65
2022-10-09T08:32:21.663Z,2.40
2022-10-09T08:35:09.802Z,3.33
2022-10-09T08:37:37.372Z,2.53
2022-10-09T08:40:08.331Z,2.40
2022-10-09T08:42:49.792Z,2.00
2022-10-09T08:45:19.002Z,2.25
2022-10-09T08:47:51.011Z,2.28
2022-10-09T08:53:35.369Z,2.63
2022-10-09T08:56:06.253Z,3.10
2022-10-09T08:58:35.863Z,2.15
2022-10-09T09:01:17.283Z,2.17
2022-10-09T09:04:16.864Z,2.20
2022-10-09T09:06:49.869Z,2.75
2022-10-09T09:09:34.435Z,2.45
2022-10-09T09:12:04.621Z,2.70
2022-10-09T09:14:40.284Z,2.17
2022-10-09T09:17:44.875Z,2.40
2022-10-09T09:20:27.104Z,2.53
2022-10-09T09:22:54.418Z,2.40
2022-10-09T09:25:28.376Z,2.25
2022-10-09T09:28:00.309Z,1.92
2022-10-09T09:30:41.437Z,2.08
2022-10-09T09:33:11.823Z,2.60
2022-10-09T09:35:49.598Z,2.45
2022-10-09T09:38:17.026Z,2.22
2022-10-09T09:40:47.295Z,2.22
2022-10-09T09:43:18.883Z,10.00
2022-10-09T09:45:46.550Z,3.63
2022-10-09T09:48:35.035Z,2.45
2022-10-09T09:51:27.998Z,2.20
2022-10-09T09:53:59.115Z,2.88
2022-10-09T09:57:11.221Z,2.65
2022-10-09T09:59:37.508Z,1.83
2022-10-09T10:02:12.897Z,2.47
2022-10-09T10:04:54.005Z,2.38
2022-10-09T10:07:36.249Z,2.65
2022-10-09T10:10:25.827Z,2.60
2022-10-09T10:12:54.500Z,2.45
2022-10-09T10:15:28.852Z,2.00
2022-10-09T10:18:12.641Z,4.75
2022-10-09T10:20:56.493Z,5.60
2022-10-09T10:23:56.062Z,2.05
2022-10-09T10:26:27.052Z,2.30
2022-10-09T10:29:03.157Z,2.70
2022-10-09T10:31:45.781Z,2.20
2022-10-09T10:41:51.947Z,2.55
2022-10-09T10:45:00.802Z,2.53
2022-10-09T10:47:31.394Z,2.38
2022-10-09T10:50:22.934Z,2.13
2022-10-09T10:53:38.714Z,2.05
2022-10-09T10:56:19.583Z,1.85
2022-10-09T10:59:29.580Z,2.13
2022-10-09T11:02:26.686Z,2.20
2022-10-09T11:05:09.917Z,2.53
2022-10-09T11:08:03.927Z,2.00
2022-10-09T11:10:50.567Z,2.03
2022-10-09T11:13:32.561Z,2.00
2022-10-09T11:16:30.049Z,1.25
2022-10-09T11:19:16.298Z,1.80
2022-10-09T11:21:57.738Z,2.28
2022-10-09T11:24:49.475Z,2.03
2022-10-09T11:27:41.600Z,1.77
2022-10-09T11:30:16.496Z,1.30
2022-10-09T11:33:03.407Z,1.38
2022-10-09T11:35:38.050Z,1.35
2022-10-09T11:38:14.259Z,1.45
2022-10-09T11:40:43.546Z,1.65
2022-10-09T11:46:13.300Z,1.27
2022-10-09T11:48:53.723Z,1.75
2022-10-09T11:51:23.585Z,1.40
2022-10-09T11:53:51.971Z,3.85
2022-10-09T11:56:26.611Z,2.70
2022-10-09T11:59:00.476Z,1.88
2022-10-09T12:01:41.911Z,1.75
2022-10-09T12:04:23.922Z,1.35
2022-10-09T12:07:01.657Z,1.30
2022-10-09T12:09:36.185Z,1.52
2022-10-09T12:12:07.573Z,1.40
2022-10-09T12:14:37.286Z,1.27
2022-10-09T12:17:22.787Z,1.27
2022-10-09T12:20:00.172Z,1.52
2022-10-09T12:22:30.771Z,1.17
2022-10-09T12:25:07.511Z,1.45
2022-10-09T12:27:37.343Z,1.50
2022-10-09T12:30:14.332Z,1.17
2022-10-09T12:32:48.619Z,1.63
2022-10-09T12:35:32.286Z,1.20
2022-10-09T12:37:59.865Z,1.38
2022-10-09T12:40:32.683Z,1.85
2022-10-09T12:43:07.623Z,1.50
2022-10-09T12:45:34.935Z,1.70
2022-10-09T12:48:10.780Z,1.63
2022-10-09T12:50:38.250Z,1.60
2022-10-09T12:53:12.365Z,1.40
2022-10-09T12:55:48.847Z,1.00
2022-10-09T12:58:23.531Z,1.85
2022-10-09T13:00:53.498Z,1.42
2022-10-09T13:03:37.308Z,1.65
2022-10-09T13:06:07.445Z,1.45
2022-10-09T13:08:39.819Z,1.30
2022-10-09T13:11:17.499Z,1.58
2022-10-09T13:13:49.716Z,1.60
2022-10-09T13:16:17.259Z,1.08
2022-10-09T13:18:54.931Z,1.42
2022-10-09T13:21:31.363Z,1.80
2022-10-09T13:24:13.185Z,1.20
2022-10-09T13:26:42.903Z,1.52
2022-10-09T13:29:11.494Z,1.70
2022-10-09T13:31:43.545Z,1.35
2022-10-09T13:34:12.691Z,1.08
2022-10-09T13:36:40.197Z,2.00
2022-10-09T13:39:09.405Z,1.23
2022-10-09T13:44:03.883Z,1.67
2022-10-09T13:46:31.219Z,1.55
2022-10-09T13:49:03.836Z,1.45
2022-10-09T13:51:32.047Z,1.33
2022-10-09T13:53:59.352Z,1.52
2022-10-09T13:56:26.626Z,1.50
2022-10-09T13:58:56.539Z,1.30
2022-10-09T14:01:24.107Z,2.10
2022-10-09T14:03:51.433Z,1.50
2022-10-09T14:06:22.295Z,1.30
2022-10-09T14:08:50.148Z,1.40
2022-10-09T14:11:18.630Z,1.33
2022-10-09T14:13:46.103Z,2.23
2022-10-09T14:16:13.374Z,1.90
2022-10-09T14:18:40.825Z,1.33
2022-10-09T14:21:14.820Z,1.90
2022-10-09T14:23:44.874Z,2.03
2022-10-09T14:26:13.623Z,1.50
2022-10-09T14:28:41.766Z,1.50
2022-10-09T14:31:09.147Z,1.23
2022-10-09T14:33:36.367Z,1.10
2022-10-09T14:36:14.837Z,1.80
2022-10-09T14:38:42.898Z,1.67
2022-10-09T14:41:10.603Z,1.50
2022-10-09T14:43:38.164Z,0.95
2022-10-09T14:46:12.299Z,1.27
2022-10-09T14:48:40.226Z,1.88
2022-10-09T14:51:10.752Z,1.90
2022-10-09T14:53:38.163Z,1.50
2022-10-09T14:56:07.480Z,1.30
2022-10-09T14:58:36.064Z,1.00
2022-10-09T15:01:04.193Z,1.75
2022-10-09T15:03:32.075Z,1.27
2022-10-09T15:06:01.171Z,1.30
2022-10-09T15:08:31.108Z,1.00
2022-10-09T15:10:58.577Z,1.42
2022-10-09T15:13:26.892Z,1.70
2022-10-09T15:16:00.116Z,1.30
2022-10-09T15:18:28.316Z,1.10
2022-10-09T15:20:56.282Z,1.80
2022-10-09T15:23:23.423Z,1.60
2022-10-09T15:25:51.665Z,1.75
2022-10-09T15:28:19.119Z,1.73
2022-10-09T15:30:47.923Z,2.20
2022-10-09T15:33:15.126Z,1.90
2022-10-09T15:35:42.287Z,2.03
2022-10-09T15:38:17.447Z,1.42
2022-10-09T15:40:49.915Z,2.20
2022-10-09T15:43:21.784Z,2.20
2022-10-09T15:45:49.281Z,2.97
2022-10-09T15:48:18.371Z,2.03
2022-10-09T15:50:46.633Z,1.70
2022-10-09T15:53:14.942Z,2.33
2022-10-09T15:55:50.353Z,2.13
2022-10-09T15:58:20.910Z,2.22
2022-10-09T16:00:50.126Z,2.10
2022-10-09T16:05:50.883Z,1.70
2022-10-09T16:08:19.538Z,1.95
2022-10-09T16:10:49.397Z,3.08
2022-10-09T16:13:17.044Z,3.42
2022-10-09T16:15:51.107Z,5.60
2022-10-09T16:18:25.420Z,8.32
2022-10-09T16:20:52.648Z,6.90
2022-10-09T16:23:19.827Z,37.75
2022-10-09T16:25:58.276Z,5.07
2022-10-09T16:28:28.731Z,5.87
2022-10-09T16:30:59.488Z,8.82
2022-10-09T16:33:27.227Z,7.53
2022-10-09T16:35:54.430Z,5.60
2022-10-09T16:38:21.649Z,5.93
2022-10-09T16:41:01.370Z,6.82
2022-10-09T16:43:29.298Z,6.40
2022-10-09T16:45:56.445Z,5.05
2022-10-09T16:48:23.602Z,5.40
2022-10-09T16:50:50.816Z,4.85
2022-10-09T16:53:18.220Z,8.10
2022-10-09T16:55:45.369Z,6.40
2022-10-09T16:58:12.573Z,6.95
2022-10-09T17:00:39.770Z,7.43
2022-10-09T17:03:06.968Z,7.43
2022-10-09T17:05:39.269Z,6.65
2022-10-09T17:08:06.737Z,5.53
2022-10-09T17:10:33.964Z,5.43
2022-10-09T17:13:01.141Z,4.90
2022-10-09T17:15:28.316Z,5.43
2022-10-09T17:17:55.551Z,5.35
2022-10-09T17:20:22.718Z,6.80
2022-10-09T17:22:50.200Z,7.40
2022-10-09T17:25:17.875Z,9.50
2022-10-09T17:27:45.073Z,13.38
2022-10-09T17:30:12.634Z,11.18
2022-10-09T17:32:39.803Z,8.80
2022-10-09T17:35:07.441Z,12.18
2022-10-09T17:37:34.688Z,8.30
2022-10-09T17:40:01.857Z,7.30
2022-10-09T17:42:29.104Z,13.90
2022-10-09T17:44:56.260Z,9.07
2022-10-09T17:47:23.506Z,6.72
2022-10-09T17:49:50.665Z,5.30
2022-10-09T17:52:17.925Z,6.68
2022-10-09T17:54:45.261Z,7.30
2022-10-09T17:57:13.305Z,9.60
2022-10-09T17:59:40.499Z,21.98
2022-10-09T18:02:07.722Z,8.45
2022-10-09T18:04:34.886Z,5.40
2022-10-09T18:07:02.093Z,4.55
2022-10-09T18:09:29.251Z,8.18
2022-10-09T18:11:56.626Z,6.05
2022-10-09T18:14:23.829Z,8.32
2022-10-09T18:16:51.026Z,13.02
2022-10-09T18:19:18.551Z,8.52
2022-10-09T18:21:47.813Z,7.85
2022-10-09T18:26:42.647Z,7.15
2022-10-09T18:29:09.823Z,6.63
2022-10-09T18:31:38.658Z,4.70
2022-10-09T18:34:06.100Z,4.72
2022-10-09T18:36:35.128Z,5.57
2022-10-09T18:39:13.110Z,5.38
2022-10-09T18:41:40.481Z,5.68
2022-10-09T18:44:17.145Z,5.00
2022-10-09T18:46:53.827Z,4.50
2022-10-09T18:49:24.678Z,5.43
2022-10-09T18:51:53.244Z,5.07
2022-10-09T18:54:22.911Z,4.63
2022-10-09T18:56:50.147Z,6.32
2022-10-09T18:59:18.776Z,4.80
2022-10-09T19:01:46.345Z,5.90
2022-10-09T19:04:13.713Z,4.72
2022-10-09T19:06:41.134Z,6.90
2022-10-09T19:09:08.309Z,6.40
2022-10-09T19:11:35.920Z,11.90
2022-10-09T19:14:03.754Z,9.88
2022-10-09T19:16:32.992Z,6.88
2022-10-09T19:19:00.312Z,7.28
2022-10-09T19:21:27.818Z,7.07
2022-10-09T19:23:55.480Z,7.53
2022-10-09T19:26:23.360Z,6.65
2022-10-09T19:28:50.703Z,7.85
2022-10-09T19:31:19.126Z,6.88
2022-10-09T19:33:46.378Z,7.30
2022-10-09T19:36:14.080Z,13.80
2022-10-09T19:38:42.078Z,8.32
2022-10-09T19:41:12.079Z,9.27
2022-10-09T19:43:39.958Z,26.92
2022-10-09T19:46:13.956Z,6.15
2022-10-09T19:48:41.448Z,14.10
2022-10-09T19:51:11.195Z,12.13
2022-10-09T19:53:38.597Z,7.18
2022-10-09T19:56:24.903Z,9.65
2022-10-09T19:58:52.238Z,4.97
2022-10-09T20:01:25.313Z,7.28
2022-10-09T20:04:00.882Z,5.70
2022-10-09T20:06:28.581Z,9.77
2022-10-09T20:08:55.905Z,8.60
2022-10-09T20:11:24.192Z,11.98
2022-10-09T20:13:55.703Z,8.05
2022-10-09T20:16:24.496Z,6.43
2022-10-09T20:18:52.078Z,7.87
2022-10-09T20:21:19.867Z,10.27
2022-10-09T20:23:47.051Z,7.35
2022-10-09T20:26:17.159Z,8.20
2022-10-09T20:28:45.102Z,5.95
2022-10-09T20:31:17.976Z,16.25
2022-10-09T20:33:46.002Z,8.20
2022-10-09T20:36:36.993Z,6.32
2022-10-09T20:39:06.818Z,7.38
2022-10-09T20:41:34.844Z,6.63
2022-10-09T20:44:03.307Z,7.18
2022-10-09T20:46:33.008Z,6.60
2022-10-09T20:49:08.344Z,6.47
2022-10-09T20:51:36.855Z,8.48
2022-10-09T20:54:04.607Z,9.33
2022-10-09T20:56:32.741Z,11.20
2022-10-09T20:59:00.224Z,8.18
2022-10-09T21:01:28.743Z,7.28
2022-10-09T21:03:57.233Z,6.97
2022-10-09T21:06:24.882Z,6.93
2022-10-09T21:08:52.102Z,9.95
2022-10-09T21:11:19.924Z,7.43
2022-10-09T21:13:47.732Z,7.50
2022-10-09T21:16:20.237Z,8.15
2022-10-09T21:18:47.994Z,6.15
2022-10-09T21:21:17.437Z,7.45
2022-10-09T21:23:45.295Z,6.90
2022-10-09T21:26:14.637Z,6.25
2022-10-09T21:31:16.284Z,5.03
2022-10-09T21:33:43.775Z,4.20
2022-10-09T21:36:13.311Z,4.25
2022-10-09T21:38:40.487Z,4.25
2022-10-09T21:41:07.667Z,3.65
2022-10-09T21:43:37.001Z,3.25
2022-10-09T21:48:31.301Z,3.05
2022-10-09T21:50:58.459Z,2.85
2022-10-09T21:53:25.647Z,3.45
2022-10-09T21:55:53.105Z,3.05
2022-10-09T21:58:20.288Z,3.35
2022-10-09T22:00:54.575Z,3.00
2022-10-09T22:03:23.247Z,2.97
2022-10-09T22:05:50.450Z,3.40
2022-10-09T22:08:17.665Z,3.47
2022-10-09T22:10:45.082Z,3.20
2022-10-09T22:13:12.350Z,3.13
2022-10-09T22:15:44.891Z,2.70
2022-10-09T22:18:15.065Z,2.13
2022-10-09T22:20:43.725Z,2.80
2022-10-09T22:23:11.744Z,2.70
2022-10-09T22:25:39.311Z,2.80
2022-10-09T22:28:07.085Z,4.00
2022-10-09T22:30:34.800Z,2.72
2022-10-09T22:33:04.276Z,2.45
2022-10-09T22:35:31.484Z,3.25
2022-10-09T22:37:58.640Z,3.30
2022-10-09T22:40:25.905Z,2.88
2022-10-09T22:42:53.407Z,2.50
2022-10-09T22:45:20.869Z,2.58
2022-10-09T22:47:48.680Z,2.47
2022-10-09T22:50:15.975Z,2.35
2022-10-09T22:52:43.175Z,2.47
2022-10-09T22:55:10.447Z,2.92
2022-10-09T22:57:37.636Z,2.92
2022-10-09T23:00:05.525Z,2.80
2022-10-09T23:02:33.104Z,2.05
2022-10-09T23:05:00.260Z,2.83
2022-10-09T23:07:27.641Z,2.70
2022-10-09T23:09:54.828Z,3.08
2022-10-09T23:12:22.036Z,2.83
2022-10-09T23:14:51.146Z,2.92
2022-10-09T23:17:18.323Z,3.20
2022-10-09T23:19:45.492Z,2.67
2022-10-09T23:22:13.024Z,2.88
2022-10-09T23:24:40.207Z,2.58
2022-10-09T23:27:07.588Z,2.72
2022-10-09T23:29:34.765Z,2.83
2022-10-09T23:32:01.936Z,2.78
2022-10-09T23:34:29.297Z,2.95
2022-10-09T23:36:56.467Z,2.60
2022-10-09T23:39:23.964Z,2.92
2022-10-09T23:41:51.546Z,3.05
2022-10-09T23:44:21.967Z,2.50
2022-10-09T23:46:49.527Z,2.50
2022-10-09T23:49:16.718Z,3.15
2022-10-09T23:51:43.891Z,2.97
2022-10-09T23:54:11.479Z,2.72
2022-10-09T23:56:38.723Z,3.15
2022-10-09T23:59:06.633Z,3.08
